Time;durP1;ratioP1;P1;durP2;ratioP2;P2;SDS_P1;SDS_P2;PMS_P1;PMS_P2;Temp;Humidity;BMP_temperature;BMP_pressure;BME280_temperature;BME280_humidity;BME280_pressure;Samples;Min_cycle;Max_cycle;Signal;HPM_P1;HPM_P2
2021/03/30 00:00:48;;;;;;;8.05;2.50;;;8.60;46.80;;;;;;4992262;28;20503;-74
2021/03/30 00:03:14;;;;;;;5.75;2.55;;;8.60;47.20;;;;;;4996565;28;20029;-75
2021/03/30 00:05:41;;;;;;;12.38;3.22;;;8.50;48.50;;;;;;4993309;28;20052;-74
2021/03/30 00:08:07;;;;;;;13.40;3.22;;;8.50;49.00;;;;;;4992336;28;20526;-75
2021/03/30 00:10:40;;;;;;;8.73;2.85;;;8.40;48.70;;;;;;4972898;28;20054;-75
2021/03/30 00:13:05;;;;;;;11.23;2.83;;;8.40;50.10;;;;;;4992375;28;20030;-75
2021/03/30 00:15:31;;;;;;;12.35;3.05;;;8.40;49.90;;;;;;4988380;28;20372;-75
2021/03/30 00:17:57;;;;;;;9.30;2.97;;;8.30;49.80;;;;;;4987849;28;20364;-75
2021/03/30 00:20:23;;;;;;;7.80;2.92;;;8.30;50.70;;;;;;4988474;28;20045;-75
2021/03/30 00:22:48;;;;;;;8.93;2.80;;;8.30;50.20;;;;;;4972794;28;20184;-75
2021/03/30 00:25:14;;;;;;;9.10;2.67;;;8.30;50.80;;;;;;4989011;28;20503;-75
2021/03/30 00:27:40;;;;;;;6.95;2.70;;;8.20;50.80;;;;;;4992462;28;20527;-75
2021/03/30 00:30:09;;;;;;;7.10;2.60;;;8.20;51.00;;;;;;4991943;28;20372;-75
2021/03/30 00:32:35;;;;;;;9.93;2.97;;;8.20;52.20;;;;;;5007799;28;20046;-75
2021/03/30 00:35:00;;;;;;;9.73;3.17;;;8.30;52.50;;;;;;4995593;28;20038;-75
2021/03/30 00:37:26;;;;;;;11.88;2.92;;;8.20;52.80;;;;;;4992675;28;20054;-75
2021/03/30 00:39:52;;;;;;;12.00;3.15;;;8.20;52.70;;;;;;5007042;28;20616;-75
2021/03/30 00:42:19;;;;;;;9.88;3.25;;;8.10;53.70;;;;;;4993109;28;20444;-75
2021/03/30 00:44:45;;;;;;;14.15;2.60;;;8.10;54.50;;;;;;4997738;28;20046;-75
2021/03/30 00:47:17;;;;;;;10.15;3.03;;;8.10;54.40;;;;;;4997889;28;20052;-75
2021/03/30 00:49:44;;;;;;;6.75;2.58;;;8.00;54.50;;;;;;4994789;28;20034;-74
2021/03/30 00:52:10;;;;;;;17.77;2.75;;;7.90;54.90;;;;;;4992289;28;20172;-75
2021/03/30 00:54:36;;;;;;;10.18;3.10;;;7.90;55.60;;;;;;4994428;28;20517;-76
2021/03/30 00:57:03;;;;;;;9.50;3.25;;;8.00;57.00;;;;;;4991386;28;20067;-76
2021/03/30 00:59:29;;;;;;;8.85;2.70;;;8.00;57.40;;;;;;4987599;28;20153;-75
2021/03/30 01:01:55;;;;;;;10.38;2.67;;;7.90;57.40;;;;;;4990253;28;20149;-75
2021/03/30 01:04:20;;;;;;;13.93;3.17;;;7.80;57.20;;;;;;4991300;28;20073;-75
2021/03/30 01:06:47;;;;;;;6.18;2.80;;;7.80;57.80;;;;;;4987814;28;20088;-75
2021/03/30 01:09:25;;;;;;;13.32;3.00;;;7.80;58.00;;;;;;4973154;28;20126;-73
2021/03/30 01:12:27;;;;;;;14.45;2.95;;;7.80;59.30;;;;;;4991908;28;20084;-75
2021/03/30 01:15:01;;;;;;;7.85;3.10;;;7.70;58.90;;;;;;4990582;28;20034;-74
2021/03/30 01:17:43;;;;;;;11.85;3.05;;;7.70;59.10;;;;;;4987778;28;20501;-74
2021/03/30 01:20:31;;;;;;;12.80;3.63;;;7.80;59.50;;;;;;4989144;28;20125;-76
2021/03/30 01:23:05;;;;;;;6.30;2.97;;;7.70;59.70;;;;;;4989756;28;20575;-75
2021/03/30 01:25:34;;;;;;;9.32;2.83;;;7.70;60.50;;;;;;4986040;28;20046;-75
2021/03/30 01:28:05;;;;;;;10.88;2.70;;;7.60;60.30;;;;;;4992037;28;20033;-75
2021/03/30 01:30:36;;;;;;;15.13;3.15;;;7.60;60.50;;;;;;4988253;28;20033;-75
2021/03/30 01:33:10;;;;;;;9.07;2.60;;;7.50;61.30;;;;;;5010322;23;20038;-73
2021/03/30 01:35:39;;;;;;;13.15;3.08;;;7.50;62.40;;;;;;4988819;28;20591;-73
2021/03/30 01:38:07;;;;;;;10.23;3.08;;;7.50;61.90;;;;;;4987409;28;20038;-72
2021/03/30 01:40:34;;;;;;;11.40;3.22;;;7.50;63.00;;;;;;4990641;28;20030;-72
2021/03/30 01:43:06;;;;;;;11.18;3.42;;;7.50;63.20;;;;;;4988787;28;20049;-72
2021/03/30 01:45:32;;;;;;;7.43;2.58;;;7.40;63.20;;;;;;4987765;28;20082;-72
2021/03/30 01:47:59;;;;;;;8.95;3.05;;;7.30;63.90;;;;;;4989263;28;20064;-72
2021/03/30 01:50:26;;;;;;;7.43;2.97;;;7.30;65.50;;;;;;4987053;28;20096;-72
2021/03/30 01:52:54;;;;;;;10.75;2.83;;;7.30;65.70;;;;;;4989666;28;20064;-72
2021/03/30 01:55:21;;;;;;;10.45;3.03;;;7.30;66.80;;;;;;4987428;28;20340;-73
2021/03/30 01:57:52;;;;;;;7.63;3.60;;;7.20;66.20;;;;;;4991831;28;20033;-72
2021/03/30 02:00:20;;;;;;;10.45;3.10;;;7.20;66.30;;;;;;4991969;28;20043;-72
2021/03/30 02:02:46;;;;;;;7.07;2.65;;;7.10;66.70;;;;;;4987580;28;20050;-74
2021/03/30 02:05:13;;;;;;;6.22;2.70;;;7.10;67.10;;;;;;4992238;28;20475;-73
2021/03/30 02:07:41;;;;;;;9.55;3.00;;;7.10;67.60;;;;;;4993287;28;20070;-73
2021/03/30 02:10:13;;;;;;;12.25;2.92;;;7.10;68.10;;;;;;4990207;28;20038;-72
2021/03/30 02:12:43;;;;;;;6.70;2.92;;;7.00;68.40;;;;;;4992036;28;20482;-72
2021/03/30 02:15:14;;;;;;;11.05;2.90;;;7.10;69.10;;;;;;4992285;28;20466;-72
2021/03/30 02:18:09;;;;;;;6.90;2.78;;;7.10;69.40;;;;;;5005803;28;20045;-72
2021/03/30 02:20:38;;;;;;;7.95;2.88;;;7.10;70.60;;;;;;4990952;28;20034;-72
2021/03/30 02:23:05;;;;;;;17.23;3.78;;;7.00;70.80;;;;;;4988416;28;20045;-73
2021/03/30 02:25:32;;;;;;;7.32;3.17;;;7.10;71.10;;;;;;4988952;28;20088;-73
2021/03/30 02:28:09;;;;;;;12.55;3.38;;;6.90;71.50;;;;;;4989515;28;20073;-73
2021/03/30 02:30:36;;;;;;;14.15;3.15;;;6.90;72.50;;;;;;4986370;28;20042;-73
2021/03/30 02:33:04;;;;;;;10.07;3.20;;;6.90;73.60;;;;;;4986791;28;20124;-73
2021/03/30 02:35:30;;;;;;;7.07;2.70;;;6.80;73.10;;;;;;5004600;28;20038;-73
2021/03/30 02:37:57;;;;;;;10.10;3.03;;;6.80;73.10;;;;;;4993085;28;20031;-73
2021/03/30 02:40:24;;;;;;;10.68;2.92;;;6.80;73.20;;;;;;4996910;28;21743;-73
2021/03/30 02:42:51;;;;;;;10.90;3.67;;;6.70;74.00;;;;;;4999095;28;20057;-73
2021/03/30 02:45:21;;;;;;;14.50;3.20;;;6.70;74.40;;;;;;5011762;28;20073;-73
2021/03/30 02:47:48;;;;;;;14.02;3.17;;;6.70;75.30;;;;;;4993144;28;20311;-74
2021/03/30 02:50:15;;;;;;;11.40;3.00;;;6.60;77.00;;;;;;4990144;28;20038;-73
2021/03/30 02:52:42;;;;;;;7.88;2.72;;;6.60;78.00;;;;;;4990654;28;20048;-74
2021/03/30 02:55:08;;;;;;;9.70;2.75;;;6.60;78.70;;;;;;4988935;28;20104;-72
2021/03/30 02:57:35;;;;;;;10.45;3.38;;;6.70;79.50;;;;;;4988771;28;20510;-72
2021/03/30 03:00:01;;;;;;;20.40;4.10;;;6.60;79.70;;;;;;4989297;28;20038;-72
2021/03/30 03:02:28;;;;;;;13.20;3.83;;;6.60;80.20;;;;;;4993839;28;20112;-72
2021/03/30 03:04:54;;;;;;;10.23;3.97;;;6.70;81.30;;;;;;4989097;28;20411;-73
2021/03/30 03:07:20;;;;;;;13.60;3.47;;;6.60;81.20;;;;;;4991952;28;20051;-72
2021/03/30 03:09:48;;;;;;;8.10;3.33;;;6.50;81.20;;;;;;4991142;28;20049;-75
2021/03/30 03:12:16;;;;;;;15.27;3.72;;;6.50;82.70;;;;;;4990924;28;20042;-73
2021/03/30 03:14:43;;;;;;;12.35;3.85;;;6.50;82.30;;;;;;4992839;28;20045;-73
2021/03/30 03:17:09;;;;;;;10.45;3.97;;;6.50;82.40;;;;;;4988048;28;20156;-73
2021/03/30 03:19:36;;;;;;;8.73;3.53;;;6.50;83.40;;;;;;4986902;28;20531;-73
2021/03/30 03:22:05;;;;;;;10.45;3.88;;;6.50;84.20;;;;;;4985331;28;20045;-73
2021/03/30 03:24:31;;;;;;;9.85;3.97;;;6.50;86.30;;;;;;4986888;28;20052;-73
2021/03/30 03:26:57;;;;;;;17.08;4.57;;;6.50;85.80;;;;;;4975556;28;20140;-73
2021/03/30 03:29:22;;;;;;;14.00;4.00;;;6.40;86.10;;;;;;4932991;28;20053;-73
2021/03/30 03:31:49;;;;;;;18.55;4.35;;;6.40;86.10;;;;;;4985591;28;20042;-73
2021/03/30 03:34:16;;;;;;;15.02;3.90;;;6.40;86.30;;;;;;4979299;28;20037;-73
2021/03/30 03:36:48;;;;;;;11.30;3.53;;;6.30;86.70;;;;;;4941588;28;20046;-73
2021/03/30 03:39:18;;;;;;;8.75;3.80;;;6.30;87.20;;;;;;4976019;28;20060;-73
2021/03/30 03:41:45;;;;;;;15.38;3.60;;;6.30;88.20;;;;;;4986161;28;20034;-73
2021/03/30 03:44:12;;;;;;;11.27;3.72;;;6.30;88.70;;;;;;4973991;28;20078;-72
2021/03/30 03:46:38;;;;;;;9.95;3.95;;;6.30;88.80;;;;;;4975214;28;20038;-72
2021/03/30 03:49:06;;;;;;;14.43;3.80;;;6.20;89.10;;;;;;4988181;28;20557;-73
2021/03/30 03:51:45;;;;;;;14.70;3.75;;;6.20;90.10;;;;;;4990858;28;20506;-73
2021/03/30 03:54:13;;;;;;;13.50;3.63;;;6.20;89.20;;;;;;4986754;28;20041;-73
2021/03/30 03:56:45;;;;;;;10.25;3.88;;;6.20;89.10;;;;;;4988935;28;20118;-73
2021/03/30 03:59:20;;;;;;;12.07;4.25;;;6.20;89.20;;;;;;4986617;28;20033;-72
2021/03/30 04:01:55;;;;;;;14.73;3.55;;;6.10;89.90;;;;;;4986572;28;20033;-73
2021/03/30 04:04:50;;;;;;;15.27;3.92;;;6.10;89.40;;;;;;4987683;28;20072;-73
2021/03/30 04:07:18;;;;;;;;;;;6.10;89.70;;;;;;4974571;28;20042;-72
2021/03/30 04:09:48;;;;;;;16.17;3.30;;;6.10;89.90;;;;;;4986302;28;19921;-74
2021/03/30 04:12:15;;;;;;;7.70;3.40;;;6.10;89.90;;;;;;4987301;28;20034;-73
2021/03/30 04:14:40;;;;;;;15.93;3.35;;;6.10;90.00;;;;;;4991472;28;20129;-72
2021/03/30 04:17:06;;;;;;;17.63;4.05;;;6.00;89.90;;;;;;4986816;28;20050;-72
2021/03/30 04:19:38;;;;;;;8.85;3.20;;;6.00;90.30;;;;;;4988519;28;20041;-72
2021/03/30 04:22:05;;;;;;;13.65;3.30;;;6.00;90.00;;;;;;4988517;28;20046;-72
2021/03/30 04:24:30;;;;;;;10.63;3.38;;;5.90;90.10;;;;;;4989540;28;20065;-72
2021/03/30 04:26:56;;;;;;;11.45;3.42;;;5.90;90.20;;;;;;4988115;28;20065;-73
2021/03/30 04:29:21;;;;;;;8.38;3.25;;;5.90;90.20;;;;;;4987011;28;20487;-72
2021/03/30 04:31:47;;;;;;;7.53;2.95;;;5.90;90.50;;;;;;4988595;28;20538;-71
2021/03/30 04:34:13;;;;;;;9.98;3.83;;;5.90;90.50;;;;;;4990010;28;20661;-73
2021/03/30 04:36:38;;;;;;;12.00;3.70;;;5.90;90.60;;;;;;4989387;28;20038;-73
2021/03/30 04:39:04;;;;;;;12.25;3.08;;;5.90;91.20;;;;;;4988605;28;20535;-73
2021/03/30 04:41:30;;;;;;;11.55;4.15;;;5.80;91.30;;;;;;4987301;28;20058;-74
2021/03/30 04:43:55;;;;;;;13.45;3.78;;;5.80;91.20;;;;;;4992186;28;20042;-74
2021/03/30 04:46:21;;;;;;;19.65;4.20;;;5.90;91.40;;;;;;5002823;28;20365;-74
2021/03/30 04:48:46;;;;;;;12.18;3.50;;;5.90;91.40;;;;;;5008280;28;20330;-73
2021/03/30 04:51:12;;;;;;;16.45;3.60;;;5.90;91.30;;;;;;4996888;28;20554;-73
2021/03/30 04:53:38;;;;;;;8.90;3.33;;;5.90;91.20;;;;;;4996235;28;20030;-74
2021/03/30 04:56:03;;;;;;;15.07;3.78;;;5.80;91.50;;;;;;4995101;28;20034;-73
2021/03/30 04:58:29;;;;;;;9.85;3.17;;;5.80;91.70;;;;;;4996768;28;20038;-73
2021/03/30 05:00:55;;;;;;;11.93;3.72;;;5.80;91.60;;;;;;4994249;28;20046;-73
2021/03/30 05:03:21;;;;;;;12.85;2.90;;;5.80;91.30;;;;;;4995914;28;20547;-74
2021/03/30 05:05:47;;;;;;;16.65;3.47;;;5.80;91.00;;;;;;4994540;28;20677;-74
2021/03/30 05:08:13;;;;;;;10.65;3.15;;;5.80;91.00;;;;;;4995214;28;20042;-73
2021/03/30 05:10:38;;;;;;;10.23;3.20;;;5.90;90.90;;;;;;4993937;28;20177;-74
2021/03/30 05:13:04;;;;;;;9.50;3.13;;;5.90;90.80;;;;;;4993206;28;20027;-73
2021/03/30 05:15:30;;;;;;;10.00;3.30;;;5.90;91.20;;;;;;4996268;28;20320;-74
2021/03/30 05:17:55;;;;;;;9.55;4.13;;;5.80;91.10;;;;;;4993157;28;20547;-74
2021/03/30 05:20:21;;;;;;;9.77;3.67;;;5.80;91.20;;;;;;4990085;28;20034;-74
2021/03/30 05:22:46;;;;;;;10.93;3.22;;;5.80;91.50;;;;;;4989658;28;20125;-74
2021/03/30 05:25:13;;;;;;;13.27;3.60;;;5.80;91.50;;;;;;4991602;28;20088;-72
2021/03/30 05:27:38;;;;;;;13.07;2.97;;;5.80;91.50;;;;;;4999001;28;20104;-73
2021/03/30 05:30:07;;;;;;;17.23;3.55;;;5.80;91.20;;;;;;5007519;28;20077;-71
2021/03/30 05:32:32;;;;;;;14.98;4.22;;;5.90;91.30;;;;;;4996911;28;20071;-73
2021/03/30 05:34:58;;;;;;;18.98;3.50;;;5.90;91.40;;;;;;4996079;28;20042;-73
2021/03/30 05:37:24;;;;;;;19.25;3.58;;;5.90;91.40;;;;;;5001440;28;20022;-74
2021/03/30 05:39:49;;;;;;;33.45;4.13;;;5.90;91.40;;;;;;5019347;28;20053;-73
2021/03/30 05:42:17;;;;;;;14.20;3.95;;;5.90;91.40;;;;;;4995543;28;20128;-73
2021/03/30 05:44:44;;;;;;;19.98;4.03;;;6.00;92.10;;;;;;4994031;28;20046;-73
2021/03/30 05:49:38;;;;;;;19.13;5.05;;;6.30;91.10;;;;;;4990864;28;20109;-75
2021/03/30 05:52:08;;;;;;;16.02;4.03;;;6.30;91.00;;;;;;4990305;28;20046;-74
2021/03/30 05:54:36;;;;;;;19.95;4.25;;;6.40;90.20;;;;;;4988174;28;20045;-72
2021/03/30 05:57:05;;;;;;;12.25;3.75;;;6.50;89.90;;;;;;4987030;28;20065;-73
2021/03/30 05:59:33;;;;;;;17.70;3.92;;;6.60;90.50;;;;;;4989218;28;20066;-75
2021/03/30 06:02:00;;;;;;;29.73;4.65;;;6.60;90.20;;;;;;4976247;28;20072;-73
2021/03/30 06:04:25;;;;;;;20.52;5.47;;;6.70;88.60;;;;;;4987407;28;20513;-74
2021/03/30 06:06:51;;;;;;;16.15;3.80;;;6.80;87.50;;;;;;4985392;28;20034;-74
2021/03/30 06:09:19;;;;;;;21.40;3.92;;;6.90;85.30;;;;;;4988914;28;20061;-74
2021/03/30 06:11:45;;;;;;;10.45;3.80;;;7.10;85.20;;;;;;4991634;28;20034;-73
2021/03/30 06:14:11;;;;;;;18.45;4.25;;;7.10;84.70;;;;;;4988161;28;20034;-73
2021/03/30 06:16:39;;;;;;;13.70;4.13;;;7.20;84.40;;;;;;4989904;28;20491;-73
2021/03/30 06:19:12;;;;;;;21.20;4.30;;;7.30;83.90;;;;;;4987301;28;20104;-74
2021/03/30 06:21:45;;;;;;;16.80;4.43;;;7.40;83.40;;;;;;4988395;28;20046;-73
2021/03/30 06:24:20;;;;;;;22.08;3.80;;;7.50;83.20;;;;;;4993716;28;20049;-74
2021/03/30 06:26:46;;;;;;;17.83;4.40;;;7.60;82.50;;;;;;4991612;28;20675;-73
2021/03/30 06:29:35;;;;;;;13.93;5.00;;;7.70;80.80;;;;;;4987658;28;20054;-73
2021/03/30 06:32:03;;;;;;;9.98;4.18;;;7.90;81.10;;;;;;4990660;28;20113;-73
2021/03/30 06:34:30;;;;;;;16.30;4.85;;;7.90;80.80;;;;;;4989855;28;20677;-74
2021/03/30 06:36:57;;;;;;;21.95;4.80;;;8.10;79.40;;;;;;4988120;28;20034;-73
2021/03/30 06:39:34;;;;;;;19.95;5.55;;;8.20;78.30;;;;;;4986651;28;20547;-73
2021/03/30 06:44:37;;;;;;;23.38;4.88;;;8.50;76.70;;;;;;4984818;28;20489;-73
2021/03/30 06:47:14;;;;;;;29.27;5.25;;;8.60;76.30;;;;;;4986932;28;20038;-73
2021/03/30 06:49:58;;;;;;;18.70;5.18;;;8.80;73.40;;;;;;4992439;28;20085;-72
2021/03/30 06:52:35;;;;;;;21.03;6.13;;;9.00;72.80;;;;;;4989056;28;20030;-74
2021/03/30 06:55:05;;;;;;;17.40;4.40;;;9.30;70.60;;;;;;4988254;28;20041;-73
2021/03/30 06:57:51;;;;;;;16.85;5.25;;;9.50;68.90;;;;;;4987225;28;20046;-72
2021/03/30 07:00:33;;;;;;;16.02;5.05;;;10.10;65.20;;;;;;4986451;28;20062;-73
2021/03/30 07:03:05;;;;;;;34.17;5.13;;;10.90;61.40;;;;;;4986786;28;20141;-73
2021/03/30 07:05:39;;;;;;;26.55;6.32;;;11.40;58.90;;;;;;4984916;28;20697;-72
2021/03/30 07:08:07;;;;;;;19.67;6.05;;;11.90;56.80;;;;;;4987106;28;20042;-73
2021/03/30 07:10:35;;;;;;;29.08;6.22;;;12.50;53.50;;;;;;4985335;28;20546;-73
2021/03/30 07:13:01;;;;;;;25.25;5.32;;;12.70;50.00;;;;;;4986886;28;20057;-72
2021/03/30 07:15:27;;;;;;;24.50;6.03;;;13.10;47.90;;;;;;4988389;28;20046;-73
2021/03/30 07:18:06;;;;;;;26.67;5.53;;;13.40;46.70;;;;;;4989629;28;20042;-72
2021/03/30 07:20:38;;;;;;;38.28;6.50;;;13.20;44.60;;;;;;4987216;28;20050;-72
2021/03/30 07:23:08;;;;;;;23.35;6.15;;;13.40;45.10;;;;;;4987069;28;20048;-72
2021/03/30 07:25:38;;;;;;;22.00;5.97;;;13.80;43.80;;;;;;4987158;28;20421;-72
2021/03/30 07:28:11;;;;;;;23.73;6.25;;;14.10;41.60;;;;;;4996761;28;20582;-73
2021/03/30 07:30:41;;;;;;;25.00;5.47;;;14.80;40.00;;;;;;4988427;28;20057;-73
2021/03/30 07:33:25;;;;;;;19.58;6.32;;;14.90;38.30;;;;;;5015100;23;20065;-78
2021/03/30 07:35:54;;;;;;;;;;;15.10;37.00;;;;;;4995260;28;20432;-76
2021/03/30 07:38:20;;;;;;;14.07;4.50;;;15.20;36.70;;;;;;5000248;28;20366;-76
2021/03/30 07:40:47;;;;;;;22.15;6.93;;;14.60;35.50;;;;;;4987654;28;20034;-77
2021/03/30 07:43:28;;;;;;;21.02;6.03;;;14.10;37.90;;;;;;4988326;28;20038;-78
2021/03/30 07:45:59;;;;;;;18.90;5.95;;;13.90;38.90;;;;;;4996859;28;20044;-77
2021/03/30 07:48:27;;;;;;;20.33;5.53;;;13.80;39.00;;;;;;4985663;28;20031;-77
2021/03/30 07:51:08;;;;;;;23.98;6.07;;;14.20;38.60;;;;;;4988185;28;20505;-77
2021/03/30 07:53:54;;;;;;;18.30;7.07;;;14.60;37.60;;;;;;4987474;28;20031;-77
2021/03/30 07:56:28;;;;;;;15.70;6.07;;;14.60;37.30;;;;;;4988873;28;20038;-80
2021/03/30 07:58:56;;;;;;;24.63;5.72;;;15.10;37.10;;;;;;4998987;28;20061;-77
2021/03/30 08:01:28;;;;;;;26.13;6.13;;;15.10;35.20;;;;;;4988331;28;20038;-78
2021/03/30 08:03:55;;;;;;;17.02;5.90;;;15.60;33.90;;;;;;4998377;28;20129;-76
2021/03/30 08:06:23;;;;;;;18.90;5.60;;;16.20;33.10;;;;;;4987469;28;20038;-77
2021/03/30 08:09:00;;;;;;;20.17;5.82;;;16.40;31.10;;;;;;4987709;28;20420;-77
2021/03/30 08:14:08;;;;;;;18.77;4.93;;;15.80;31.40;;;;;;4989092;28;20030;-77
2021/03/30 08:16:35;;;;;;;29.05;5.55;;;15.80;31.60;;;;;;4992373;28;20042;-76
2021/03/30 08:19:04;;;;;;;18.63;5.82;;;15.60;32.60;;;;;;4995810;28;20077;-77
2021/03/30 08:21:51;;;;;;;23.15;7.03;;;15.60;33.40;;;;;;4995883;28;20130;-78
2021/03/30 08:24:17;;;;;;;23.08;6.10;;;15.60;33.10;;;;;;4993061;28;20046;-78
2021/03/30 08:26:45;;;;;;;11.40;5.28;;;15.70;33.40;;;;;;4991195;28;20062;-75
2021/03/30 08:29:11;;;;;;;16.77;5.63;;;15.70;32.80;;;;;;4994818;28;20046;-77
2021/03/30 08:31:46;;;;;;;20.52;5.80;;;15.70;32.90;;;;;;4991976;28;20031;-76
2021/03/30 08:34:24;;;;;;;24.70;5.85;;;15.70;33.50;;;;;;4996553;28;20125;-78
2021/03/30 08:36:51;;;;;;;20.55;6.68;;;16.00;32.60;;;;;;4996585;28;20081;-77
2021/03/30 08:39:19;;;;;;;22.67;6.22;;;16.30;31.90;;;;;;4996617;28;20125;-80
2021/03/30 08:41:53;;;;;;;19.20;5.30;;;16.70;30.30;;;;;;4998670;28;20034;-79
2021/03/30 08:44:28;;;;;;;18.40;5.95;;;17.00;29.30;;;;;;4996166;28;20158;-78
2021/03/30 08:46:56;;;;;;;27.83;6.10;;;17.20;28.60;;;;;;4995478;28;20041;-78
2021/03/30 08:49:35;;;;;;;15.18;5.82;;;17.20;29.50;;;;;;5001670;28;21004;-78
2021/03/30 08:52:06;;;;;;;20.17;6.60;;;17.20;28.60;;;;;;4996903;28;21013;-77
2021/03/30 08:57:12;;;;;;;23.80;5.88;;;18.20;27.10;;;;;;4996116;28;20497;-77
2021/03/30 08:59:39;;;;;;;13.43;5.10;;;18.60;25.40;;;;;;4995156;28;20065;-77
2021/03/30 09:02:09;;;;;;;27.13;5.90;;;19.10;25.10;;;;;;5001502;28;20053;-78
2021/03/30 09:04:40;;;;;;;22.95;5.10;;;19.50;24.10;;;;;;4995586;28;20045;-78
2021/03/30 09:07:07;;;;;;;20.15;6.30;;;19.60;22.50;;;;;;5000243;28;20109;-78
2021/03/30 09:09:34;;;;;;;22.33;5.63;;;20.70;22.50;;;;;;5002799;28;20045;-78
2021/03/30 09:12:02;;;;;;;21.92;5.88;;;21.20;21.60;;;;;;5005021;28;20042;-78
2021/03/30 09:14:27;;;;;;;18.73;5.82;;;21.20;20.50;;;;;;5003742;28;20408;-79
2021/03/30 09:17:02;;;;;;;21.75;5.88;;;21.70;20.40;;;;;;5002194;28;20042;-79
2021/03/30 09:19:32;;;;;;;19.42;5.78;;;22.50;19.50;;;;;;5004848;28;20069;-79
2021/03/30 09:22:03;;;;;;;19.45;5.63;;;22.90;18.40;;;;;;5000300;28;20042;-78
2021/03/30 09:27:21;;;;;;;18.65;6.28;;;23.10;18.00;;;;;;4999493;28;20076;-79
2021/03/30 09:29:51;;;;;;;15.23;5.18;;;23.00;17.90;;;;;;4997263;28;20046;-80
2021/03/30 09:32:16;;;;;;;16.35;4.60;;;23.60;17.10;;;;;;4995567;28;20045;-78
2021/03/30 09:34:43;;;;;;;18.50;6.18;;;24.00;17.00;;;;;;4993032;28;20050;-79
2021/03/30 09:37:09;;;;;;;18.80;6.25;;;24.90;16.50;;;;;;4994977;28;20146;-78
2021/03/30 09:39:36;;;;;;;16.75;5.18;;;25.10;15.30;;;;;;4995570;28;20125;-78
2021/03/30 09:42:02;;;;;;;13.48;5.70;;;25.20;14.70;;;;;;4991737;28;20120;-78
2021/03/30 09:44:34;;;;;;;25.33;5.90;;;25.50;14.50;;;;;;4995279;28;20496;-78
2021/03/30 09:47:00;;;;;;;23.70;5.97;;;26.40;14.60;;;;;;4995800;28;20058;-78
2021/03/30 09:49:26;;;;;;;16.73;4.93;;;25.90;13.40;;;;;;5004986;28;20038;-77
2021/03/30 09:51:53;;;;;;;12.38;4.82;;;25.90;13.70;;;;;;4993554;28;20445;-76
2021/03/30 09:54:21;;;;;;;13.60;5.38;;;26.60;13.30;;;;;;4999289;28;20037;-78
2021/03/30 09:56:47;;;;;;;17.20;5.43;;;26.70;12.40;;;;;;5001193;28;20104;-78
2021/03/30 09:59:18;;;;;;;12.20;5.53;;;26.40;12.80;;;;;;4993642;28;20038;-78
2021/03/30 10:01:44;;;;;;;15.52;5.43;;;26.40;12.60;;;;;;4994175;28;20046;-76
2021/03/30 10:04:11;;;;;;;14.18;5.30;;;26.20;13.20;;;;;;4994286;28;20073;-77
2021/03/30 10:06:37;;;;;;;25.67;6.50;;;26.70;12.60;;;;;;5004898;28;20626;-78
2021/03/30 10:09:04;;;;;;;17.13;5.82;;;26.90;12.40;;;;;;4998126;28;20054;-78
2021/03/30 10:11:30;;;;;;;13.70;5.63;;;26.80;11.60;;;;;;5000610;28;20042;-79
2021/03/30 10:14:18;;;;;;;21.58;5.72;;;27.60;12.00;;;;;;4995216;28;20180;-78
2021/03/30 10:16:44;;;;;;;19.10;5.65;;;27.80;11.20;;;;;;4998440;28;20034;-78
2021/03/30 10:19:13;;;;;;;28.88;6.00;;;27.60;11.20;;;;;;5000009;28;20046;-77
2021/03/30 10:21:39;;;;;;;14.05;6.13;;;27.30;10.90;;;;;;4994959;28;20037;-78
2021/03/30 10:24:16;;;;;;;19.95;6.20;;;27.60;10.70;;;;;;4997087;28;20053;-78
2021/03/30 10:26:43;;;;;;;19.23;6.63;;;27.90;10.40;;;;;;4993745;28;20045;-77
2021/03/30 10:29:20;;;;;;;15.25;6.13;;;28.80;10.10;;;;;;4997636;28;20346;-77
2021/03/30 10:32:05;;;;;;;14.68;5.70;;;29.20;9.10;;;;;;4995649;28;20068;-77
2021/03/30 10:34:33;;;;;;;18.98;5.72;;;29.60;8.90;;;;;;5003171;28;21049;-77
2021/03/30 10:37:02;;;;;;;12.52;5.72;;;29.00;8.90;;;;;;4997556;28;20489;-78
2021/03/30 10:39:34;;;;;;;19.13;5.95;;;29.30;8.80;;;;;;5004656;28;20139;-77
2021/03/30 10:42:02;;;;;;;17.55;5.32;;;29.30;8.10;;;;;;4998680;28;20072;-77
2021/03/30 10:44:37;;;;;;;13.32;5.90;;;30.10;7.10;;;;;;4995758;28;20041;-79
2021/03/30 10:47:21;;;;;;;16.75;5.38;;;29.40;7.70;;;;;;4993073;28;20041;-78
2021/03/30 10:49:48;;;;;;;10.07;4.50;;;29.50;7.70;;;;;;4990978;28;20129;-77
2021/03/30 10:52:25;;;;;;;14.73;5.05;;;29.90;7.40;;;;;;4993721;28;20095;-77
2021/03/30 10:54:52;;;;;;;10.68;4.53;;;30.80;6.80;;;;;;4992055;28;20050;-77
2021/03/30 10:57:35;;;;;;;17.65;4.10;;;30.10;6.90;;;;;;4988398;28;20394;-78
2021/03/30 11:00:06;;;;;;;12.68;4.88;;;30.40;6.60;;;;;;4988783;28;20048;-76
2021/03/30 11:02:31;;;;;;;11.05;4.32;;;30.40;6.60;;;;;;4990412;28;20042;-76
2021/03/30 11:04:57;;;;;;;10.15;5.25;;;30.10;6.50;;;;;;4989354;28;20068;-78
2021/03/30 11:07:23;;;;;;;14.73;4.60;;;30.10;4.60;;;;;;4992299;28;20137;-77
2021/03/30 11:09:48;;;;;;;5.53;4.13;;;30.60;5.30;;;;;;4991493;28;20038;-76
2021/03/30 11:12:14;;;;;;;22.65;5.22;;;30.40;5.40;;;;;;4993803;28;20038;-77
2021/03/30 11:14:40;;;;;;;15.98;4.35;;;30.20;4.70;;;;;;4989824;28;20177;-78
2021/03/30 11:17:05;;;;;;;9.98;4.13;;;30.70;4.50;;;;;;4990481;28;20130;-77
2021/03/30 11:19:32;;;;;;;9.93;3.97;;;31.00;4.70;;;;;;4990221;28;20037;-78
2021/03/30 11:21:58;;;;;;;15.43;4.32;;;29.80;4.20;;;;;;4989768;28;20042;-78
2021/03/30 11:24:26;;;;;;;13.02;4.65;;;29.80;4.40;;;;;;4989550;28;20041;-78
2021/03/30 11:26:54;;;;;;;11.30;3.88;;;29.90;4.60;;;;;;4987639;28;20993;-78
2021/03/30 11:34:26;;;;;;;12.23;4.10;;;30.70;3.80;;;;;;4991884;28;20122;-79
2021/03/30 11:37:21;;;;;;;14.07;4.10;;;32.30;3.60;;;;;;4988834;28;20489;-78
2021/03/30 11:39:38;;;;;;;7.57;3.45;;;32.40;2.70;;;;;;4989627;28;20035;-78
2021/03/30 11:42:05;;;;;;;9.15;4.05;;;31.50;2.50;;;;;;4993306;28;20044;-78
2021/03/30 11:44:30;;;;;;;12.05;4.30;;;31.40;2.90;;;;;;4991403;28;20030;-78
2021/03/30 11:46:58;;;;;;;9.35;3.45;;;31.70;3.50;;;;;;4988169;28;20426;-78
2021/03/30 11:49:24;;;;;;;8.55;3.53;;;32.20;2.80;;;;;;4993606;28;20062;-78
2021/03/30 11:51:50;;;;;;;8.38;3.90;;;32.30;3.10;;;;;;4996569;28;20108;-76
2021/03/30 11:54:15;;;;;;;11.70;4.05;;;32.30;2.70;;;;;;4995980;28;20039;-77
2021/03/30 11:56:41;;;;;;;8.00;3.80;;;32.00;3.20;;;;;;4994229;28;20038;-77
2021/03/30 11:59:07;;;;;;;16.65;3.97;;;30.70;3.20;;;;;;4991854;28;20415;-77
2021/03/30 12:01:32;;;;;;;14.68;4.70;;;31.80;4.30;;;;;;4993456;28;20500;-77
2021/03/30 12:03:58;;;;;;;10.68;3.65;;;30.70;4.00;;;;;;4992927;28;20045;-76
2021/03/30 12:06:23;;;;;;;16.67;4.35;;;30.10;3.80;;;;;;4993467;28;20590;-77
2021/03/30 12:08:49;;;;;;;13.00;3.58;;;29.80;4.00;;;;;;4995858;28;20060;-76
2021/03/30 12:11:14;;;;;;;6.05;3.97;;;30.80;4.40;;;;;;4997005;28;20423;-77
2021/03/30 12:13:40;;;;;;;10.05;3.75;;;30.50;3.50;;;;;;4999663;28;20401;-76
2021/03/30 12:16:06;;;;;;;7.15;3.83;;;31.50;3.60;;;;;;4996441;28;20038;-77
2021/03/30 12:18:31;;;;;;;13.90;4.10;;;31.90;3.40;;;;;;5000530;28;20049;-77
2021/03/30 12:20:57;;;;;;;18.10;4.00;;;31.60;3.00;;;;;;4997708;28;20030;-77
2021/03/30 12:23:23;;;;;;;10.13;3.22;;;30.70;3.60;;;;;;4999723;28;20037;-77
2021/03/30 12:25:48;;;;;;;9.18;3.42;;;31.50;3.10;;;;;;5002213;28;20404;-77
2021/03/30 12:28:14;;;;;;;13.98;4.65;;;31.40;1.40;;;;;;4993133;28;20038;-77
2021/03/30 12:30:39;;;;;;;6.50;2.88;;;31.60;1.20;;;;;;4988736;28;20038;-77
2021/03/30 12:33:05;;;;;;;4.57;2.80;;;31.20;1.20;;;;;;5000389;28;20034;-78
2021/03/30 12:35:31;;;;;;;5.90;3.10;;;30.60;1.00;;;;;;4982673;28;20046;-81
2021/03/30 12:37:57;;;;;;;7.57;2.70;;;30.60;1.30;;;;;;5001491;28;20044;-81
2021/03/30 12:40:31;;;;;;;6.90;3.05;;;30.30;2.10;;;;;;5008793;28;20034;-82
2021/03/30 12:42:57;;;;;;;9.13;2.85;;;31.60;1.30;;;;;;5002355;28;20085;-81
2021/03/30 12:45:25;;;;;;;5.15;2.78;;;30.90;1.00;;;;;;5006372;28;20174;-81
2021/03/30 12:47:50;;;;;;;8.18;2.75;;;31.70;1.90;;;;;;4991085;28;20078;-81
2021/03/30 12:50:16;;;;;;;7.97;3.15;;;31.70;1.50;;;;;;4998722;28;20030;-81
2021/03/30 12:52:42;;;;;;;13.15;5.35;;;32.10;1.90;;;;;;5003024;28;20069;-81
2021/03/30 12:55:12;;;;;;;4.65;3.03;;;31.90;1.60;;;;;;5001295;28;20041;-81
2021/03/30 12:57:38;;;;;;;12.05;3.42;;;31.90;2.70;;;;;;4998408;28;20545;-81
2021/03/30 13:00:06;;;;;;;6.30;3.85;;;32.10;2.30;;;;;;5000404;28;20056;-82
2021/03/30 13:02:31;;;;;;;10.38;3.60;;;31.50;1.00;;;;;;4996378;28;20034;-76
2021/03/30 13:04:57;;;;;;;10.13;3.72;;;31.30;1.30;;;;;;4994153;28;20984;-77
2021/03/30 13:07:23;;;;;;;15.65;3.65;;;31.60;2.00;;;;;;4990740;28;20046;-75
2021/03/30 13:09:49;;;;;;;8.32;3.45;;;31.30;1.80;;;;;;5001768;28;20041;-76
2021/03/30 13:12:15;;;;;;;5.63;3.25;;;31.30;1.20;;;;;;4993822;28;20038;-79
2021/03/30 13:14:41;;;;;;;11.45;3.90;;;31.30;1.40;;;;;;4998764;28;20112;-79